createdAt,value
2018-12-25T00:00:04.000Z,24.52
2018-12-25T00:10:04.000Z,24.51
2018-12-25T00:20:04.000Z,24.5
2018-12-25T00:30:04.000Z,24.46
2018-12-25T00:40:04.000Z,24.48
2018-12-25T00:50:04.000Z,24.31
2018-12-25T01:00:05.000Z,24.22
2018-12-25T01:10:04.000Z,24.19
2018-12-25T01:20:04.000Z,24.11
2018-12-25T01:30:04.000Z,24.1
2018-12-25T01:40:04.000Z,24
2018-12-25T01:50:04.000Z,23.93
2018-12-25T02:00:04.000Z,23.88
2018-12-25T02:10:04.000Z,23.82
2018-12-25T02:20:04.000Z,23.92
2018-12-25T02:30:04.000Z,23.89
2018-12-25T02:40:04.000Z,23.88
2018-12-25T02:50:04.000Z,23.88
2018-12-25T03:00:04.000Z,23.83
2018-12-25T03:10:04.000Z,23.68
2018-12-25T03:20:04.000Z,23.68
2018-12-25T03:30:06.000Z,23.59
2018-12-25T03:40:04.000Z,23.61
2018-12-25T03:50:04.000Z,23.44
2018-12-25T04:00:04.000Z,23.47
2018-12-25T04:10:04.000Z,23.44
2018-12-25T04:20:04.000Z,23.37
2018-12-25T04:30:04.000Z,23.26
2018-12-25T04:40:05.000Z,23.14
2018-12-25T04:50:05.000Z,23.18
2018-12-25T05:00:05.000Z,23.14
2018-12-25T05:10:05.000Z,23.13
2018-12-25T05:20:05.000Z,23.09
2018-12-25T05:30:05.000Z,23.2
2018-12-25T05:40:05.000Z,23.22
2018-12-25T05:50:05.000Z,23.22
2018-12-25T06:00:05.000Z,23.23
2018-12-25T06:10:05.000Z,23.25
2018-12-25T06:20:05.000Z,23.26
2018-12-25T06:30:05.000Z,23.34
2018-12-25T06:40:05.000Z,23.42
2018-12-25T06:50:05.000Z,23.33
2018-12-25T07:00:05.000Z,23.37
2018-12-25T07:10:05.000Z,23.34
2018-12-25T07:20:05.000Z,23.43
2018-12-25T07:30:05.000Z,23.53
2018-12-25T07:40:05.000Z,23.5
2018-12-25T07:50:05.000Z,23.63
2018-12-25T08:00:05.000Z,23.53
2018-12-25T08:10:05.000Z,23.75
2018-12-25T08:20:05.000Z,23.61
2018-12-25T08:30:05.000Z,23.44
2018-12-25T08:40:05.000Z,23.62
2018-12-25T08:50:05.000Z,23.67
2018-12-25T09:00:05.000Z,23.94
2018-12-25T09:10:05.000Z,23.72
2018-12-25T09:20:05.000Z,23.83
2018-12-25T09:30:05.000Z,23.82
2018-12-25T09:40:05.000Z,23.83
2018-12-25T09:50:05.000Z,23.92
2018-12-25T10:00:05.000Z,23.88
2018-12-25T10:10:05.000Z,24.19
2018-12-25T10:20:05.000Z,24.37
2018-12-25T10:30:07.000Z,24.36
2018-12-25T10:40:05.000Z,24.59
2018-12-25T10:50:05.000Z,24.49
2018-12-25T11:00:05.000Z,24.555
2018-12-25T11:10:06.000Z,24.65
2018-12-25T11:20:05.000Z,24.79
2018-12-25T11:30:06.000Z,24.84
2018-12-25T11:40:05.000Z,25.08
2018-12-25T11:50:05.000Z,25.05
2018-12-25T12:00:05.000Z,24.99
2018-12-25T12:10:05.000Z,25.03
2018-12-25T12:20:06.000Z,25
2018-12-25T12:30:06.000Z,25.22
2018-12-25T12:40:05.000Z,25.21
2018-12-25T12:50:06.000Z,25.28
2018-12-25T13:00:06.000Z,25.28
2018-12-25T13:10:06.000Z,25.25
2018-12-25T13:20:06.000Z,25.31
2018-12-25T13:30:06.000Z,25.34
2018-12-25T13:40:06.000Z,25.48
2018-12-25T13:50:06.000Z,25.51
2018-12-25T14:00:06.000Z,25.43
2018-12-25T14:10:06.000Z,25.23
2018-12-25T14:20:06.000Z,25.23
2018-12-25T14:30:07.000Z,25.29
2018-12-25T14:40:06.000Z,25.17
2018-12-25T14:50:06.000Z,25.06
2018-12-25T15:00:06.000Z,24.94
2018-12-25T15:10:06.000Z,24.88
2018-12-25T15:20:06.000Z,25.06
2018-12-25T15:30:06.000Z,24.91
2018-12-25T15:40:06.000Z,25.02
2018-12-25T15:50:06.000Z,25.12
2018-12-25T16:00:06.000Z,25.07
2018-12-25T16:10:06.000Z,24.88
2018-12-25T16:20:06.000Z,25.18
2018-12-25T16:30:06.000Z,25.04
2018-12-25T16:40:06.000Z,24.92
2018-12-25T16:50:06.000Z,24.96
2018-12-25T17:00:06.000Z,24.83
2018-12-25T17:20:06.000Z,25
2018-12-25T17:30:06.000Z,25.03
2018-12-25T17:40:06.000Z,25.01
2018-12-25T17:50:06.000Z,24.95
2018-12-25T18:00:06.000Z,24.98
2018-12-25T18:10:06.000Z,25.03
2018-12-25T18:20:06.000Z,25.11
2018-12-25T18:30:06.000Z,25
2018-12-25T18:40:06.000Z,25.01
2018-12-25T18:50:06.000Z,25.04
2018-12-25T19:00:06.000Z,25.03
2018-12-25T19:10:06.000Z,25.21
2018-12-25T19:20:06.000Z,25.02
2018-12-25T19:30:06.000Z,25.01
2018-12-25T19:40:06.000Z,25.04
2018-12-25T19:50:06.000Z,25.09
2018-12-25T20:00:06.000Z,24.99
2018-12-25T20:10:07.000Z,25.03
2018-12-25T20:20:06.000Z,24.94
2018-12-25T20:30:06.000Z,24.93
2018-12-25T20:40:06.000Z,24.92
2018-12-25T20:50:06.000Z,25
2018-12-25T21:00:07.000Z,24.86
2018-12-25T21:10:07.000Z,24.94
2018-12-25T21:20:07.000Z,24.9
2018-12-25T21:30:07.000Z,24.84
2018-12-25T21:40:07.000Z,24.89
2018-12-25T21:50:07.000Z,24.85
2018-12-25T22:00:07.000Z,24.82
2018-12-25T22:10:07.000Z,24.8
2018-12-25T22:20:07.000Z,24.79
2018-12-25T22:30:10.000Z,24.77
2018-12-25T22:40:08.000Z,24.73
2018-12-25T22:50:07.000Z,24.64
2018-12-25T23:00:07.000Z,24.59
2018-12-25T23:10:07.000Z,24.51
2018-12-25T23:20:07.000Z,24.49
2018-12-25T23:30:07.000Z,24.41
2018-12-25T23:40:07.000Z,24.35
2018-12-25T23:50:07.000Z,24.29
